• Join FlightAware (Why Join?)
  • Login
  • US Flag 
09:11AM EST


 

Airport Tracker/Info


-or-


 

Live Flight TrackerFlight Track Log ✈ ASQ4209 ✈ 16-May-2013 ✈ KIAH - KTYS

Flight Track Log - Related Links

Times and Time Zones

All times are in EDT time to prevent confusion due to time zone crossing. See the ASQ4209 flight status page for this flight to view local times or setup timezone preferences in your user account.

Time Position Orientation Groundspeed Altitude Reporting Facility
EDT Latitude Longitude Course Direction KTS MPH feet Rate Location/Type
10:09PM 29.9783 -95.2958 27° Northeast 153 176 800  Level Houston Center
10:10PM 30.0147 -95.2575 42° Northeast 220 253 2,400 1,740 Climbing Houston Center
10:11PM 30.0572 -95.2336 26° Northeast 246 283 3,800 2,040 Climbing Houston Center
10:12PM 30.2968 -95.2033 14° North  Level FlightAware Approximate
10:12PM 30.1281 -95.1944 26° Northeast 279 321 6,200  Level Houston Center
10:13PM 30.4031 -95.1651 23° Northeast  Level FlightAware Approximate
10:13PM 30.2083 -95.1836 North 288 331 9,200  Level Houston Center
10:14PM 30.5032 -95.1081 27° Northeast  Level FlightAware Approximate
10:14PM 30.2847 -95.1764 North 278 320 11,100  Level Houston Center
10:15PM 30.3714 -95.1692 North 308 354 12,600 1,320 Climbing Houston Center
10:16PM 30.4681 -95.1506 North 351 404 13,800 1,260 Climbing Houston Center
10:17PM 30.5603 -95.0939 28° Northeast 375 432 15,200 1,740 Climbing Houston Center
10:18PM 30.6697 -95.0250 28° Northeast 374 430 17,400 1,800 Climbing Houston Center
10:19PM 30.7625 -94.9681 28° Northeast 376 433 18,900 1,440 Climbing Houston Center
10:20PM 30.8544 -94.9100 28° Northeast 377 434 20,400 1,500 Climbing Houston Center
10:21PM 30.9464 -94.8525 28° Northeast 378 435 22,000 1,440 Climbing Houston Center
10:21PM 30.9639 -94.8406 30° Northeast 376 433 22,300 1,440 Climbing Fort Worth Center
10:22PM 31.0567 -94.7847 27° Northeast 371 427 23,900 1,740 Climbing Fort Worth Center
10:23PM 31.1575 -94.7214 28° Northeast 375 432 25,800 1,620 Climbing Fort Worth Center
10:24PM 31.2481 -94.6603 30° Northeast 375 432 27,200 1,200 Climbing Fort Worth Center
10:25PM 31.3428 -94.5967 30° Northeast 375 432 28,200 960 Climbing Fort Worth Center
10:26PM 31.4372 -94.5281 32° Northeast 383 441 29,200 960 Climbing Fort Worth Center
10:27PM 31.5336 -94.4617 30° Northeast 394 453 30,200 1,020 Climbing Fort Worth Center
10:28PM 31.6322 -94.3928 31° Northeast 399 459 31,300 1,020 Climbing Fort Worth Center
10:29PM 31.7328 -94.3211 31° Northeast 406 467 32,300 840 Climbing Fort Worth Center
10:30PM 31.8356 -94.2517 30° Northeast 412 474 33,000 300 Climbing Fort Worth Center
10:31PM 31.9422 -94.1744 32° Northeast 423 487 33,000  Level Fort Worth Center
10:32PM 32.0550 -94.0969 30° Northeast 445 512 33,000  Level Fort Worth Center
10:33PM 32.1656 -94.0169 31° Northeast 458 527 33,000  Level Fort Worth Center
10:34PM 32.2550 -93.9350 38° Northeast 458 527 33,000  Level Fort Worth Center
10:35PM 32.3225 -93.8022 59° Northeast 447 514 33,000 300 Level Fort Worth Center
10:36PM 32.3322 -93.6419 86° East 447 514 33,700 840 Climbing Fort Worth Center
10:37PM 32.3378 -93.4819 88° East 456 525 34,700 600 Climbing Fort Worth Center
10:38PM 32.3453 -93.3242 87° East 467 537 35,000 120 Climbing Fort Worth Center
10:39PM 32.3525 -93.1642 87° East 478 550 35,000  Level Fort Worth Center
10:40PM 32.3597 -93.0064 87° East 478 550 35,000  Level Fort Worth Center
10:41PM 32.3667 -92.8486 87° East 478 550 35,000  Level Fort Worth Center
10:42PM 32.3753 -92.6883 86° East 485 558 35,000  Level Fort Worth Center
10:43PM 32.3817 -92.5306 87° East 485 558 35,000  Level Fort Worth Center
10:44PM 32.3878 -92.3656 87° East 485 558 35,000  Level Fort Worth Center
10:45PM 32.3961 -92.2100 86° East 485 558 35,000  Level Fort Worth Center
10:47PM 32.4097 -91.9125 87° East 475 547 35,000  Level Memphis Center
10:48PM 32.4219 -91.7600 85° East 475 547 35,000  Level Memphis Center
10:49PM 32.4486 -91.6081 78° East 475 547 35,000  Level Memphis Center
10:50PM 32.4792 -91.4581 76° East 469 540 35,000  Level Memphis Center
10:51PM 32.5158 -91.3131 73° East 462 532 35,000  Level Memphis Center
10:52PM 32.5753 -91.1783 62° Northeast 453 521 35,000  Level Memphis Center
10:53PM 32.6408 -91.0481 59° Northeast 453 521 35,000  Level Memphis Center
10:54PM 32.7083 -90.9153 59° Northeast 458 527 35,000  Level Memphis Center
10:55PM 32.7736 -90.7847 59° Northeast 463 533 35,000  Level Memphis Center
10:56PM 32.8406 -90.6539 59° Northeast 468 539 35,000  Level Memphis Center
10:57PM 32.9056 -90.5181 60° Northeast 468 539 35,000  Level Memphis Center
10:58PM 32.9725 -90.3844 59° Northeast 468 539 35,000  Level Memphis Center
10:59PM 33.0392 -90.2506 59° Northeast 468 539 35,000  Level Memphis Center
11:00PM 33.1081 -90.1167 58° Northeast 468 539 35,000  Level Memphis Center
11:01PM 33.1744 -89.9775 60° Northeast 468 539 35,000  Level Memphis Center
11:02PM 33.2428 -89.8406 59° Northeast 468 539 35,000  Level Memphis Center
11:03PM 33.3111 -89.7011 60° Northeast 468 539 35,000  Level Memphis Center
11:04PM 33.3750 -89.5661 60° Northeast 468 539 35,000 -420 Level Memphis Center
11:05PM 33.4386 -89.4336 60° Northeast 463 533 34,200 -1,140 Descending Memphis Center
11:06PM 33.5025 -89.3033 60° Northeast 463 533 32,800 -1,440 Descending Memphis Center
11:07PM 33.5639 -89.1756 60° Northeast 452 520 31,400 -1,440 Descending Memphis Center
11:08PM 33.6253 -89.0425 61° Northeast 447 514 30,000 -1,200 Descending Memphis Center
11:09PM 33.6925 -88.9017 60° Northeast 458 527 29,000 -540 Descending Memphis Center
11:10PM 33.7556 -88.7656 61° Northeast 463 533 29,000  Level Memphis Center
11:11PM 33.8183 -88.6294 61° Northeast 463 533 29,000  Level Memphis Center
11:12PM 33.8831 -88.4931 60° Northeast 463 533 29,000  Level Memphis Center
11:13PM 33.9478 -88.3564 60° Northeast 463 533 29,000  Level Memphis Center
11:14PM 34.0122 -88.2197 60° Northeast 463 533 29,000  Level Memphis Center
11:15PM 34.0767 -88.0778 61° Northeast 475 547 29,000  Level Memphis Center
11:16PM 34.1428 -87.9353 61° Northeast 468 539 29,000  Level Memphis Center
11:17PM 34.2069 -87.8031 60° Northeast 463 533 29,000  Level Memphis Center
11:18PM 34.2686 -87.6653 62° Northeast 463 533 29,000  Level Memphis Center
11:19PM 34.3222 -87.5431 62° Northeast 463 533 29,000  Level Memphis Center
11:21PM 34.4425 -87.2806 61° Northeast 469 540 29,000  Level Atlanta Center
11:22PM 34.5042 -87.1467 61° Northeast 464 534 29,000  Level Atlanta Center
11:23PM 34.5661 -87.0078 62° Northeast 464 534 29,000  Level Atlanta Center
11:24PM 34.6300 -86.8711 60° Northeast 464 534 29,000  Level Atlanta Center
11:25PM 34.6914 -86.7317 62° Northeast 464 534 29,000  Level Atlanta Center
11:26PM 34.7528 -86.5947 61° Northeast 464 534 29,000 -540 Level Atlanta Center
11:27PM 34.8142 -86.4575 61° Northeast 464 534 28,000 -1,260 Descending Atlanta Center
11:28PM 34.8750 -86.3175 62° Northeast 464 534 26,500 -1,500 Descending Atlanta Center
11:29PM 34.9361 -86.1772 62° Northeast 469 540 25,000 -1,020 Descending Atlanta Center
11:30PM 35.0317 -85.9564 62° Northeast 444 511 23,900 -1,020 Descending Atlanta Center
11:31PM 35.0919 -85.8208 61° Northeast 444 511 22,500 -1,260 Descending Atlanta Center
11:32PM 35.1481 -85.6872 63° Northeast 444 511 21,400 -780 Descending Atlanta Center
11:33PM 35.2039 -85.5589 62° Northeast 444 511 21,000 -240 Descending Atlanta Center
11:34PM 35.2619 -85.4275 62° Northeast 439 505 21,000  Level Atlanta Center
11:35PM 35.3175 -85.2961 63° Northeast 434 499 21,000 -360 Level Atlanta Center
11:36PM 35.3708 -85.1669 63° Northeast 429 494 20,300 -1,380 Descending Atlanta Center
11:37PM 35.4264 -85.0378 62° Northeast 429 494 18,300 -1,920 Descending Atlanta Center
11:38PM 35.4817 -84.9111 62° Northeast 429 494 16,500 -1,920 Descending Atlanta Center
11:39PM 35.5325 -84.7917 62° Northeast 424 488 14,500 -2,040 Descending Atlanta Center
11:40PM 35.5831 -84.6694 63° Northeast 409 471 12,500 -1,680 Descending Atlanta Center
11:41PM 35.6275 -84.5625 63° Northeast 378 435 11,200 -1,320 Descending Atlanta Center
11:42PM 35.6694 -84.4656 62° Northeast 337 388 9,900 -1,560 Descending Atlanta Center
11:43PM 35.7053 -84.3789 63° Northeast 302 348 8,100 -1,500 Descending Atlanta Center
11:44PM 35.7408 -84.2947 62° Northeast 286 329 7,000 -600 Descending Atlanta Center
11:45PM 35.7869 -84.2231 52° Northeast 274 315 7,000 -540 Level Atlanta Center
11:46PM 35.8475 -84.1617 39° Northeast 264 304 6,000 -1,020 Descending Atlanta Center
11:47PM 35.8936 -84.0900 52° Northeast 264 304 5,000 -960 Descending Atlanta Center
11:48PM 35.9353 -84.0106 57° Northeast 269 310 4,100 -900 Descending Atlanta Center